sensor_id;sensor_type;location;lat;lon;timestamp;temperature;humidity
38265;DHT22;24062;47.480;8.768;2022-09-25T00:00:51;13.20;76.40
38265;DHT22;24062;47.480;8.768;2022-09-25T00:03:21;13.20;76.40
38265;DHT22;24062;47.480;8.768;2022-09-25T00:05:49;13.20;76.50
38265;DHT22;24062;47.480;8.768;2022-09-25T00:08:17;13.20;76.50
38265;DHT22;24062;47.480;8.768;2022-09-25T00:10:46;13.30;76.70
38265;DHT22;24062;47.480;8.768;2022-09-25T00:13:14;13.30;76.70
38265;DHT22;24062;47.480;8.768;2022-09-25T00:15:45;13.40;76.90
38265;DHT22;24062;47.480;8.768;2022-09-25T00:18:13;13.40;76.90
38265;DHT22;24062;47.480;8.768;2022-09-25T00:20:41;13.50;76.90
38265;DHT22;24062;47.480;8.768;2022-09-25T00:23:07;13.40;76.70
38265;DHT22;24062;47.480;8.768;2022-09-25T00:25:34;13.40;76.80
38265;DHT22;24062;47.480;8.768;2022-09-25T00:28:01;13.50;77.10
38265;DHT22;24062;47.480;8.768;2022-09-25T00:30:28;13.60;77.20
38265;DHT22;24062;47.480;8.768;2022-09-25T00:32:55;13.60;77.20
38265;DHT22;24062;47.480;8.768;2022-09-25T00:35:22;13.60;77.20
38265;DHT22;24062;47.480;8.768;2022-09-25T00:37:50;13.60;77.30
38265;DHT22;24062;47.480;8.768;2022-09-25T00:40:17;13.60;77.40
38265;DHT22;24062;47.480;8.768;2022-09-25T00:42:44;13.60;77.50
38265;DHT22;24062;47.480;8.768;2022-09-25T00:45:15;13.60;77.50
38265;DHT22;24062;47.480;8.768;2022-09-25T00:47:55;13.60;77.40
38265;DHT22;24062;47.480;8.768;2022-09-25T00:50:31;13.60;78.20
38265;DHT22;24062;47.480;8.768;2022-09-25T00:53:04;13.60;77.30
38265;DHT22;24062;47.480;8.768;2022-09-25T00:55:33;13.60;77.20
38265;DHT22;24062;47.480;8.768;2022-09-25T00:58:02;13.50;77.10
38265;DHT22;24062;47.480;8.768;2022-09-25T01:00:31;13.50;77.80
38265;DHT22;24062;47.480;8.768;2022-09-25T01:02:58;13.40;76.90
38265;DHT22;24062;47.480;8.768;2022-09-25T01:05:28;13.30;76.70
38265;DHT22;24062;47.480;8.768;2022-09-25T01:07:57;13.20;76.80
38265;DHT22;24062;47.480;8.768;2022-09-25T01:10:27;13.10;76.70
38265;DHT22;24062;47.480;8.768;2022-09-25T01:12:55;13.00;76.60
38265;DHT22;24062;47.480;8.768;2022-09-25T01:15:29;13.00;76.60
38265;DHT22;24062;47.480;8.768;2022-09-25T01:18:04;12.90;76.50
38265;DHT22;24062;47.480;8.768;2022-09-25T01:21:03;12.80;76.50
38265;DHT22;24062;47.480;8.768;2022-09-25T01:26:53;12.60;76.60
38265;DHT22;24062;47.480;8.768;2022-09-25T01:29:25;12.60;76.50
38265;DHT22;24062;47.480;8.768;2022-09-25T01:31:57;12.50;76.30
38265;DHT22;24062;47.480;8.768;2022-09-25T01:34:31;12.40;77.20
38265;DHT22;24062;47.480;8.768;2022-09-25T01:37:06;12.40;76.50
38265;DHT22;24062;47.480;8.768;2022-09-25T01:39:36;12.40;76.80
38265;DHT22;24062;47.480;8.768;2022-09-25T01:42:09;12.40;77.20
38265;DHT22;24062;47.480;8.768;2022-09-25T01:44:43;12.60;77.70
38265;DHT22;24062;47.480;8.768;2022-09-25T01:47:16;12.70;77.80
38265;DHT22;24062;47.480;8.768;2022-09-25T01:49:48;12.80;77.80
38265;DHT22;24062;47.480;8.768;2022-09-25T01:52:19;12.90;77.70
38265;DHT22;24062;47.480;8.768;2022-09-25T01:54:50;12.90;77.70
38265;DHT22;24062;47.480;8.768;2022-09-25T01:57:21;13.00;77.70
38265;DHT22;24062;47.480;8.768;2022-09-25T01:59:55;13.00;77.50
38265;DHT22;24062;47.480;8.768;2022-09-25T02:02:27;13.00;77.50
38265;DHT22;24062;47.480;8.768;2022-09-25T02:05:01;13.00;77.50
38265;DHT22;24062;47.480;8.768;2022-09-25T02:07:32;13.00;77.50
38265;DHT22;24062;47.480;8.768;2022-09-25T02:10:04;13.00;77.50
38265;DHT22;24062;47.480;8.768;2022-09-25T02:12:36;13.10;77.80
38265;DHT22;24062;47.480;8.768;2022-09-25T02:15:11;13.20;77.90
38265;DHT22;24062;47.480;8.768;2022-09-25T02:17:42;13.20;77.80
38265;DHT22;24062;47.480;8.768;2022-09-25T02:20:31;13.20;77.70
38265;DHT22;24062;47.480;8.768;2022-09-25T02:23:05;13.20;77.60
38265;DHT22;24062;47.480;8.768;2022-09-25T02:25:36;13.10;77.40
38265;DHT22;24062;47.480;8.768;2022-09-25T02:28:04;13.00;77.30
38265;DHT22;24062;47.480;8.768;2022-09-25T02:30:32;13.00;77.50
38265;DHT22;24062;47.480;8.768;2022-09-25T02:32:59;13.10;77.90
38265;DHT22;24062;47.480;8.768;2022-09-25T02:35:26;13.10;77.90
38265;DHT22;24062;47.480;8.768;2022-09-25T02:37:54;13.10;77.80
38265;DHT22;24062;47.480;8.768;2022-09-25T02:40:25;13.10;77.90
38265;DHT22;24062;47.480;8.768;2022-09-25T02:42:58;13.20;78.00
38265;DHT22;24062;47.480;8.768;2022-09-25T02:45:36;13.10;77.90
38265;DHT22;24062;47.480;8.768;2022-09-25T02:48:12;13.10;77.90
38265;DHT22;24062;47.480;8.768;2022-09-25T02:50:46;13.10;77.90
38265;DHT22;24062;47.480;8.768;2022-09-25T02:53:21;13.00;77.80
38265;DHT22;24062;47.480;8.768;2022-09-25T02:55:56;13.00;77.90
38265;DHT22;24062;47.480;8.768;2022-09-25T02:58:26;13.00;78.30
38265;DHT22;24062;47.480;8.768;2022-09-25T03:00:56;13.00;78.40
38265;DHT22;24062;47.480;8.768;2022-09-25T03:03:26;13.10;78.50
38265;DHT22;24062;47.480;8.768;2022-09-25T03:05:55;13.10;78.50
38265;DHT22;24062;47.480;8.768;2022-09-25T03:08:23;13.10;78.40
38265;DHT22;24062;47.480;8.768;2022-09-25T03:11:08;13.00;78.30
38265;DHT22;24062;47.480;8.768;2022-09-25T03:13:35;13.00;78.20
38265;DHT22;24062;47.480;8.768;2022-09-25T03:16:07;12.90;78.00
38265;DHT22;24062;47.480;8.768;2022-09-25T03:18:34;12.90;78.00
38265;DHT22;24062;47.480;8.768;2022-09-25T03:21:02;12.80;77.60
38265;DHT22;24062;47.480;8.768;2022-09-25T03:23:30;12.70;77.60
38265;DHT22;24062;47.480;8.768;2022-09-25T03:25:58;12.60;77.50
38265;DHT22;24062;47.480;8.768;2022-09-25T03:28:25;12.60;77.40
38265;DHT22;24062;47.480;8.768;2022-09-25T03:30:57;12.50;77.30
38265;DHT22;24062;47.480;8.768;2022-09-25T03:33:27;12.40;77.30
38265;DHT22;24062;47.480;8.768;2022-09-25T03:36:02;12.20;77.30
38265;DHT22;24062;47.480;8.768;2022-09-25T03:38:29;12.10;77.30
38265;DHT22;24062;47.480;8.768;2022-09-25T03:40:56;12.10;77.50
38265;DHT22;24062;47.480;8.768;2022-09-25T03:43:23;12.10;77.60
38265;DHT22;24062;47.480;8.768;2022-09-25T03:45:50;12.10;77.60
38265;DHT22;24062;47.480;8.768;2022-09-25T03:48:17;12.10;77.40
38265;DHT22;24062;47.480;8.768;2022-09-25T03:50:45;12.00;77.30
38265;DHT22;24062;47.480;8.768;2022-09-25T03:53:14;12.00;77.30
38265;DHT22;24062;47.480;8.768;2022-09-25T03:55:43;11.90;77.40
38265;DHT22;24062;47.480;8.768;2022-09-25T03:58:13;12.00;77.80
38265;DHT22;24062;47.480;8.768;2022-09-25T04:00:41;12.10;78.10
38265;DHT22;24062;47.480;8.768;2022-09-25T04:03:07;12.20;78.20
38265;DHT22;24062;47.480;8.768;2022-09-25T04:05:34;12.20;78.10
38265;DHT22;24062;47.480;8.768;2022-09-25T04:08:03;12.30;78.20
38265;DHT22;24062;47.480;8.768;2022-09-25T04:10:30;12.30;78.00
38265;DHT22;24062;47.480;8.768;2022-09-25T04:12:57;12.30;78.00
38265;DHT22;24062;47.480;8.768;2022-09-25T04:15:24;12.40;78.20
38265;DHT22;24062;47.480;8.768;2022-09-25T04:17:51;12.40;78.20
38265;DHT22;24062;47.480;8.768;2022-09-25T04:20:18;12.50;78.30
38265;DHT22;24062;47.480;8.768;2022-09-25T04:22:45;12.50;78.30
38265;DHT22;24062;47.480;8.768;2022-09-25T04:25:14;12.50;78.30
38265;DHT22;24062;47.480;8.768;2022-09-25T04:27:41;12.50;78.40
38265;DHT22;24062;47.480;8.768;2022-09-25T04:30:09;12.60;78.70
38265;DHT22;24062;47.480;8.768;2022-09-25T04:32:36;12.60;78.50
38265;DHT22;24062;47.480;8.768;2022-09-25T04:35:20;12.70;78.60
38265;DHT22;24062;47.480;8.768;2022-09-25T04:37:47;12.70;78.50
38265;DHT22;24062;47.480;8.768;2022-09-25T04:40:16;12.70;78.40
38265;DHT22;24062;47.480;8.768;2022-09-25T04:42:43;12.70;78.30
38265;DHT22;24062;47.480;8.768;2022-09-25T04:45:10;12.70;78.30
38265;DHT22;24062;47.480;8.768;2022-09-25T04:47:36;12.70;78.30
38265;DHT22;24062;47.480;8.768;2022-09-25T04:50:04;12.70;78.20
38265;DHT22;24062;47.480;8.768;2022-09-25T04:52:31;12.70;78.10
38265;DHT22;24062;47.480;8.768;2022-09-25T04:54:58;12.70;78.20
38265;DHT22;24062;47.480;8.768;2022-09-25T04:57:26;12.60;78.10
38265;DHT22;24062;47.480;8.768;2022-09-25T04:59:53;12.60;78.10
38265;DHT22;24062;47.480;8.768;2022-09-25T05:02:20;12.50;77.70
38265;DHT22;24062;47.480;8.768;2022-09-25T05:04:51;12.40;77.30
38265;DHT22;24062;47.480;8.768;2022-09-25T05:07:18;12.30;77.30
38265;DHT22;24062;47.480;8.768;2022-09-25T05:09:45;12.20;77.40
38265;DHT22;24062;47.480;8.768;2022-09-25T05:12:12;12.20;77.70
38265;DHT22;24062;47.480;8.768;2022-09-25T05:14:40;12.10;77.80
38265;DHT22;24062;47.480;8.768;2022-09-25T05:17:07;12.20;78.20
38265;DHT22;24062;47.480;8.768;2022-09-25T05:19:36;12.20;78.30
38265;DHT22;24062;47.480;8.768;2022-09-25T05:22:03;12.30;78.40
38265;DHT22;24062;47.480;8.768;2022-09-25T05:24:30;12.40;78.60
38265;DHT22;24062;47.480;8.768;2022-09-25T05:26:57;12.40;78.60
38265;DHT22;24062;47.480;8.768;2022-09-25T05:29:24;12.50;78.70
38265;DHT22;24062;47.480;8.768;2022-09-25T05:31:52;12.50;78.60
38265;DHT22;24062;47.480;8.768;2022-09-25T05:34:19;12.60;78.60
38265;DHT22;24062;47.480;8.768;2022-09-25T05:36:46;12.60;78.60
38265;DHT22;24062;47.480;8.768;2022-09-25T05:39:12;12.60;78.60
38265;DHT22;24062;47.480;8.768;2022-09-25T05:41:39;12.60;78.50
38265;DHT22;24062;47.480;8.768;2022-09-25T05:44:06;12.70;78.70
38265;DHT22;24062;47.480;8.768;2022-09-25T05:46:34;12.70;78.70
38265;DHT22;24062;47.480;8.768;2022-09-25T05:49:02;12.80;78.70
38265;DHT22;24062;47.480;8.768;2022-09-25T05:51:29;12.80;78.70
38265;DHT22;24062;47.480;8.768;2022-09-25T05:53:56;12.80;78.80
38265;DHT22;24062;47.480;8.768;2022-09-25T05:56:25;12.80;78.80
38265;DHT22;24062;47.480;8.768;2022-09-25T05:58:52;12.90;78.90
38265;DHT22;24062;47.480;8.768;2022-09-25T06:01:20;12.90;78.90
38265;DHT22;24062;47.480;8.768;2022-09-25T06:03:47;12.90;78.90
38265;DHT22;24062;47.480;8.768;2022-09-25T06:06:15;13.00;79.00
38265;DHT22;24062;47.480;8.768;2022-09-25T06:08:42;13.00;78.80
38265;DHT22;24062;47.480;8.768;2022-09-25T06:11:09;13.10;78.90
38265;DHT22;24062;47.480;8.768;2022-09-25T06:13:36;13.10;78.90
38265;DHT22;24062;47.480;8.768;2022-09-25T06:16:03;13.20;79.10
38265;DHT22;24062;47.480;8.768;2022-09-25T06:18:31;13.40;79.60
38265;DHT22;24062;47.480;8.768;2022-09-25T06:21:00;13.60;79.80
38265;DHT22;24062;47.480;8.768;2022-09-25T06:23:29;13.70;79.70
38265;DHT22;24062;47.480;8.768;2022-09-25T06:25:59;13.80;79.50
38265;DHT22;24062;47.480;8.768;2022-09-25T06:28:26;13.90;79.30
38265;DHT22;24062;47.480;8.768;2022-09-25T06:30:53;14.00;79.50
38265;DHT22;24062;47.480;8.768;2022-09-25T06:33:20;14.10;79.70
38265;DHT22;24062;47.480;8.768;2022-09-25T06:35:48;14.20;79.80
38265;DHT22;24062;47.480;8.768;2022-09-25T06:38:15;14.40;80.70
38265;DHT22;24062;47.480;8.768;2022-09-25T06:40:43;14.50;79.90
38265;DHT22;24062;47.480;8.768;2022-09-25T06:43:11;14.60;80.00
38265;DHT22;24062;47.480;8.768;2022-09-25T06:45:38;14.80;80.10
38265;DHT22;24062;47.480;8.768;2022-09-25T06:48:07;14.80;79.70
38265;DHT22;24062;47.480;8.768;2022-09-25T06:50:39;14.90;79.60
38265;DHT22;24062;47.480;8.768;2022-09-25T06:53:07;15.00;79.90
38265;DHT22;24062;47.480;8.768;2022-09-25T06:55:34;15.10;80.10
38265;DHT22;24062;47.480;8.768;2022-09-25T06:58:03;15.20;80.00
38265;DHT22;24062;47.480;8.768;2022-09-25T07:00:30;15.30;79.80
38265;DHT22;24062;47.480;8.768;2022-09-25T07:02:58;15.30;79.50
38265;DHT22;24062;47.480;8.768;2022-09-25T07:05:43;15.20;79.30
38265;DHT22;24062;47.480;8.768;2022-09-25T07:08:13;15.20;79.40
38265;DHT22;24062;47.480;8.768;2022-09-25T07:10:46;15.20;79.50
38265;DHT22;24062;47.480;8.768;2022-09-25T07:13:15;15.30;79.90
38265;DHT22;24062;47.480;8.768;2022-09-25T07:15:42;15.30;80.00
38265;DHT22;24062;47.480;8.768;2022-09-25T07:18:09;15.40;79.90
38265;DHT22;24062;47.480;8.768;2022-09-25T07:20:36;15.50;80.10
38265;DHT22;24062;47.480;8.768;2022-09-25T07:23:03;15.60;80.40
38265;DHT22;24062;47.480;8.768;2022-09-25T07:25:30;15.80;80.60
38265;DHT22;24062;47.480;8.768;2022-09-25T07:27:57;15.90;80.60
38265;DHT22;24062;47.480;8.768;2022-09-25T07:30:28;16.00;80.30
38265;DHT22;24062;47.480;8.768;2022-09-25T07:32:54;16.20;80.30
38265;DHT22;24062;47.480;8.768;2022-09-25T07:35:23;16.00;80.00
38265;DHT22;24062;47.480;8.768;2022-09-25T07:37:53;16.10;80.00
38265;DHT22;24062;47.480;8.768;2022-09-25T07:40:20;16.00;79.80
38265;DHT22;24062;47.480;8.768;2022-09-25T07:42:47;16.00;80.50
38265;DHT22;24062;47.480;8.768;2022-09-25T07:45:14;16.10;80.10
38265;DHT22;24062;47.480;8.768;2022-09-25T07:47:43;16.30;80.80
38265;DHT22;24062;47.480;8.768;2022-09-25T07:50:09;16.60;81.10
38265;DHT22;24062;47.480;8.768;2022-09-25T07:52:36;16.60;80.00
38265;DHT22;24062;47.480;8.768;2022-09-25T07:55:04;16.70;80.10
38265;DHT22;24062;47.480;8.768;2022-09-25T07:57:31;16.80;80.20
38265;DHT22;24062;47.480;8.768;2022-09-25T07:59:58;16.90;80.10
38265;DHT22;24062;47.480;8.768;2022-09-25T08:02:25;17.00;80.20
38265;DHT22;24062;47.480;8.768;2022-09-25T08:04:53;17.30;80.90
38265;DHT22;24062;47.480;8.768;2022-09-25T08:07:20;17.60;81.30
38265;DHT22;24062;47.480;8.768;2022-09-25T08:09:47;18.10;82.10
38265;DHT22;24062;47.480;8.768;2022-09-25T08:12:14;18.70;82.00
38265;DHT22;24062;47.480;8.768;2022-09-25T08:14:41;18.90;80.70
38265;DHT22;24062;47.480;8.768;2022-09-25T08:17:08;18.80;79.30
38265;DHT22;24062;47.480;8.768;2022-09-25T08:19:34;18.60;78.50
38265;DHT22;24062;47.480;8.768;2022-09-25T08:22:03;18.30;78.20
38265;DHT22;24062;47.480;8.768;2022-09-25T08:24:30;18.00;78.00
38265;DHT22;24062;47.480;8.768;2022-09-25T08:26:56;17.90;78.10
38265;DHT22;24062;47.480;8.768;2022-09-25T08:29:23;17.80;78.60
38265;DHT22;24062;47.480;8.768;2022-09-25T08:31:50;17.80;79.10
38265;DHT22;24062;47.480;8.768;2022-09-25T08:34:17;18.00;79.40
38265;DHT22;24062;47.480;8.768;2022-09-25T08:36:47;18.00;79.40
38265;DHT22;24062;47.480;8.768;2022-09-25T08:39:16;18.20;79.40
38265;DHT22;24062;47.480;8.768;2022-09-25T08:41:47;18.40;79.20
38265;DHT22;24062;47.480;8.768;2022-09-25T08:44:21;18.50;78.70
38265;DHT22;24062;47.480;8.768;2022-09-25T08:46:53;18.40;78.20
38265;DHT22;24062;47.480;8.768;2022-09-25T08:49:42;18.40;77.70
38265;DHT22;24062;47.480;8.768;2022-09-25T08:52:14;18.30;77.30
38265;DHT22;24062;47.480;8.768;2022-09-25T08:54:43;18.10;76.90
38265;DHT22;24062;47.480;8.768;2022-09-25T08:57:22;18.10;78.30
38265;DHT22;24062;47.480;8.768;2022-09-25T08:59:54;18.10;77.70
38265;DHT22;24062;47.480;8.768;2022-09-25T09:02:25;18.00;77.30
38265;DHT22;24062;47.480;8.768;2022-09-25T09:04:56;17.90;76.90
38265;DHT22;24062;47.480;8.768;2022-09-25T09:07:28;17.90;77.70
38265;DHT22;24062;47.480;8.768;2022-09-25T09:10:02;18.00;77.30
38265;DHT22;24062;47.480;8.768;2022-09-25T09:12:35;18.00;77.20
38265;DHT22;24062;47.480;8.768;2022-09-25T09:15:15;18.10;77.40
38265;DHT22;24062;47.480;8.768;2022-09-25T09:17:43;18.10;77.20
38265;DHT22;24062;47.480;8.768;2022-09-25T09:20:15;18.20;77.30
38265;DHT22;24062;47.480;8.768;2022-09-25T09:22:47;18.10;77.00
38265;DHT22;24062;47.480;8.768;2022-09-25T09:25:25;18.10;76.50
38265;DHT22;24062;47.480;8.768;2022-09-25T09:28:25;17.90;76.40
38265;DHT22;24062;47.480;8.768;2022-09-25T09:31:03;17.80;76.30
38265;DHT22;24062;47.480;8.768;2022-09-25T09:33:41;17.60;75.50
38265;DHT22;24062;47.480;8.768;2022-09-25T09:36:14;17.40;75.30
38265;DHT22;24062;47.480;8.768;2022-09-25T09:38:51;17.20;75.80
38265;DHT22;24062;47.480;8.768;2022-09-25T09:41:38;17.10;76.00
38265;DHT22;24062;47.480;8.768;2022-09-25T09:44:17;17.10;76.90
38265;DHT22;24062;47.480;8.768;2022-09-25T09:46:55;17.10;76.00
38265;DHT22;24062;47.480;8.768;2022-09-25T09:49:30;17.00;75.80
38265;DHT22;24062;47.480;8.768;2022-09-25T09:52:02;17.00;76.20
38265;DHT22;24062;47.480;8.768;2022-09-25T09:54:36;17.00;76.20
38265;DHT22;24062;47.480;8.768;2022-09-25T09:57:13;17.00;76.30
38265;DHT22;24062;47.480;8.768;2022-09-25T09:59:43;17.10;76.40
38265;DHT22;24062;47.480;8.768;2022-09-25T10:02:17;17.10;76.10
38265;DHT22;24062;47.480;8.768;2022-09-25T10:04:47;17.00;75.60
38265;DHT22;24062;47.480;8.768;2022-09-25T10:07:17;17.00;76.20
38265;DHT22;24062;47.480;8.768;2022-09-25T10:09:48;17.00;75.90
38265;DHT22;24062;47.480;8.768;2022-09-25T10:12:23;17.00;76.10
38265;DHT22;24062;47.480;8.768;2022-09-25T10:14:51;17.00;76.10
38265;DHT22;24062;47.480;8.768;2022-09-25T10:17:19;17.00;75.80
38265;DHT22;24062;47.480;8.768;2022-09-25T10:19:52;16.80;75.40
38265;DHT22;24062;47.480;8.768;2022-09-25T10:22:21;16.70;75.30
38265;DHT22;24062;47.480;8.768;2022-09-25T10:24:54;16.50;75.30
38265;DHT22;24062;47.480;8.768;2022-09-25T10:27:29;16.30;75.50
38265;DHT22;24062;47.480;8.768;2022-09-25T10:30:01;16.30;75.70
38265;DHT22;24062;47.480;8.768;2022-09-25T10:32:29;16.30;76.20
38265;DHT22;24062;47.480;8.768;2022-09-25T10:34:56;16.50;76.80
38265;DHT22;24062;47.480;8.768;2022-09-25T10:37:27;16.70;77.20
38265;DHT22;24062;47.480;8.768;2022-09-25T10:40:01;17.00;77.60
38265;DHT22;24062;47.480;8.768;2022-09-25T10:42:37;17.20;77.10
38265;DHT22;24062;47.480;8.768;2022-09-25T10:45:26;17.50;77.70
38265;DHT22;24062;47.480;8.768;2022-09-25T10:47:54;18.00;78.00
38265;DHT22;24062;47.480;8.768;2022-09-25T10:50:38;18.30;77.60
38265;DHT22;24062;47.480;8.768;2022-09-25T10:53:09;18.60;78.00
38265;DHT22;24062;47.480;8.768;2022-09-25T10:55:52;19.00;78.10
38265;DHT22;24062;47.480;8.768;2022-09-25T10:58:29;19.20;76.40
38265;DHT22;24062;47.480;8.768;2022-09-25T11:00:59;19.00;75.30
38265;DHT22;24062;47.480;8.768;2022-09-25T11:03:29;18.70;75.10
38265;DHT22;24062;47.480;8.768;2022-09-25T11:06:01;18.70;76.10
38265;DHT22;24062;47.480;8.768;2022-09-25T11:08:31;18.70;76.00
38265;DHT22;24062;47.480;8.768;2022-09-25T11:11:00;18.60;75.60
38265;DHT22;24062;47.480;8.768;2022-09-25T11:13:31;18.60;76.10
38265;DHT22;24062;47.480;8.768;2022-09-25T11:16:04;18.80;76.40
38265;DHT22;24062;47.480;8.768;2022-09-25T11:18:37;19.00;76.60
38265;DHT22;24062;47.480;8.768;2022-09-25T11:21:05;19.20;76.30
38265;DHT22;24062;47.480;8.768;2022-09-25T11:23:36;19.50;76.80
38265;DHT22;24062;47.480;8.768;2022-09-25T11:26:09;19.90;77.30
38265;DHT22;24062;47.480;8.768;2022-09-25T11:28:45;20.20;76.80
38265;DHT22;24062;47.480;8.768;2022-09-25T11:31:20;20.40;76.20
38265;DHT22;24062;47.480;8.768;2022-09-25T11:33:51;20.40;75.50
38265;DHT22;24062;47.480;8.768;2022-09-25T11:36:24;20.40;75.20
38265;DHT22;24062;47.480;8.768;2022-09-25T11:38:56;20.50;75.30
38265;DHT22;24062;47.480;8.768;2022-09-25T11:41:47;20.40;74.50
38265;DHT22;24062;47.480;8.768;2022-09-25T11:44:23;20.20;74.10
38265;DHT22;24062;47.480;8.768;2022-09-25T11:46:57;20.10;74.00
38265;DHT22;24062;47.480;8.768;2022-09-25T11:49:27;20.00;74.00
38265;DHT22;24062;47.480;8.768;2022-09-25T11:52:18;20.00;74.60
38265;DHT22;24062;47.480;8.768;2022-09-25T11:57:46;20.30;75.00
38265;DHT22;24062;47.480;8.768;2022-09-25T12:00:20;20.60;75.00
38265;DHT22;24062;47.480;8.768;2022-09-25T12:03:04;20.90;74.00
38265;DHT22;24062;47.480;8.768;2022-09-25T12:05:55;21.00;73.10
38265;DHT22;24062;47.480;8.768;2022-09-25T12:08:36;20.90;72.30
38265;DHT22;24062;47.480;8.768;2022-09-25T12:11:10;20.80;72.60
38265;DHT22;24062;47.480;8.768;2022-09-25T12:13:47;20.90;73.40
38265;DHT22;24062;47.480;8.768;2022-09-25T12:16:23;21.20;74.40
38265;DHT22;24062;47.480;8.768;2022-09-25T12:19:02;21.30;72.00
38265;DHT22;24062;47.480;8.768;2022-09-25T12:21:39;21.20;71.70
38265;DHT22;24062;47.480;8.768;2022-09-25T12:24:14;21.10;71.10
38265;DHT22;24062;47.480;8.768;2022-09-25T12:26:51;21.00;70.00
38265;DHT22;24062;47.480;8.768;2022-09-25T12:29:35;21.00;71.00
38265;DHT22;24062;47.480;8.768;2022-09-25T12:32:14;21.00;70.60
38265;DHT22;24062;47.480;8.768;2022-09-25T12:34:55;20.70;69.00
38265;DHT22;24062;47.480;8.768;2022-09-25T12:37:32;20.40;68.70
38265;DHT22;24062;47.480;8.768;2022-09-25T12:40:14;20.20;69.20
38265;DHT22;24062;47.480;8.768;2022-09-25T12:42:47;20.30;69.80
38265;DHT22;24062;47.480;8.768;2022-09-25T12:45:22;20.50;70.40
38265;DHT22;24062;47.480;8.768;2022-09-25T12:48:00;20.80;70.00
38265;DHT22;24062;47.480;8.768;2022-09-25T12:50:32;20.90;69.30
38265;DHT22;24062;47.480;8.768;2022-09-25T12:53:03;21.00;69.60
38265;DHT22;24062;47.480;8.768;2022-09-25T12:55:36;21.10;69.60
38265;DHT22;24062;47.480;8.768;2022-09-25T12:58:11;21.20;69.80
38265;DHT22;24062;47.480;8.768;2022-09-25T13:00:45;21.30;69.40
38265;DHT22;24062;47.480;8.768;2022-09-25T13:03:22;21.10;67.80
38265;DHT22;24062;47.480;8.768;2022-09-25T13:05:59;21.00;67.90
38265;DHT22;24062;47.480;8.768;2022-09-25T13:08:33;21.20;68.50
38265;DHT22;24062;47.480;8.768;2022-09-25T13:11:08;21.50;68.90
38265;DHT22;24062;47.480;8.768;2022-09-25T13:13:40;22.20;69.30
38265;DHT22;24062;47.480;8.768;2022-09-25T13:16:10;22.70;69.30
38265;DHT22;24062;47.480;8.768;2022-09-25T13:18:46;23.50;70.30
38265;DHT22;24062;47.480;8.768;2022-09-25T13:21:32;24.30;68.70
38265;DHT22;24062;47.480;8.768;2022-09-25T13:24:05;24.10;64.70
38265;DHT22;24062;47.480;8.768;2022-09-25T13:26:42;23.60;65.10
38265;DHT22;24062;47.480;8.768;2022-09-25T13:29:19;23.30;64.10
38265;DHT22;24062;47.480;8.768;2022-09-25T13:31:48;23.00;64.40
38265;DHT22;24062;47.480;8.768;2022-09-25T13:34:20;22.90;65.00
38265;DHT22;24062;47.480;8.768;2022-09-25T13:36:52;22.70;64.60
38265;DHT22;24062;47.480;8.768;2022-09-25T13:39:25;22.50;63.70
38265;DHT22;24062;47.480;8.768;2022-09-25T13:42:19;22.00;62.20
38265;DHT22;24062;47.480;8.768;2022-09-25T13:44:50;21.50;62.40
38265;DHT22;24062;47.480;8.768;2022-09-25T13:47:53;21.30;63.00
38265;DHT22;24062;47.480;8.768;2022-09-25T13:50:30;21.10;62.80
38265;DHT22;24062;47.480;8.768;2022-09-25T13:53:23;20.80;61.90
38265;DHT22;24062;47.480;8.768;2022-09-25T13:56:13;20.50;62.10
38265;DHT22;24062;47.480;8.768;2022-09-25T14:01:45;20.00;62.80
38265;DHT22;24062;47.480;8.768;2022-09-25T14:04:28;19.90;63.60
38265;DHT22;24062;47.480;8.768;2022-09-25T14:07:10;19.90;63.00
38265;DHT22;24062;47.480;8.768;2022-09-25T14:09:43;20.00;63.70
38265;DHT22;24062;47.480;8.768;2022-09-25T14:12:25;20.00;63.10
38265;DHT22;24062;47.480;8.768;2022-09-25T14:14:56;20.00;62.80
38265;DHT22;24062;47.480;8.768;2022-09-25T14:17:26;19.80;62.40
38265;DHT22;24062;47.480;8.768;2022-09-25T14:19:55;19.60;62.20
38265;DHT22;24062;47.480;8.768;2022-09-25T14:22:32;19.40;62.10
38265;DHT22;24062;47.480;8.768;2022-09-25T14:25:02;19.20;62.20
38265;DHT22;24062;47.480;8.768;2022-09-25T14:27:29;18.80;62.00
38265;DHT22;24062;47.480;8.768;2022-09-25T14:30:05;18.50;62.40
38265;DHT22;24062;47.480;8.768;2022-09-25T14:32:40;18.30;62.70
38265;DHT22;24062;47.480;8.768;2022-09-25T14:35:27;18.20;63.00
38265;DHT22;24062;47.480;8.768;2022-09-25T14:38:31;18.10;63.30
38265;DHT22;24062;47.480;8.768;2022-09-25T14:41:11;18.00;63.30
38265;DHT22;24062;47.480;8.768;2022-09-25T14:46:39;17.70;63.40
38265;DHT22;24062;47.480;8.768;2022-09-25T14:49:16;17.70;63.90
38265;DHT22;24062;47.480;8.768;2022-09-25T14:51:47;17.70;64.20
38265;DHT22;24062;47.480;8.768;2022-09-25T14:54:19;17.70;63.90
38265;DHT22;24062;47.480;8.768;2022-09-25T14:56:49;17.70;64.20
38265;DHT22;24062;47.480;8.768;2022-09-25T14:59:27;17.70;64.30
38265;DHT22;24062;47.480;8.768;2022-09-25T15:01:57;17.70;64.30
38265;DHT22;24062;47.480;8.768;2022-09-25T15:04:26;17.60;64.10
38265;DHT22;24062;47.480;8.768;2022-09-25T15:07:01;17.50;64.00
38265;DHT22;24062;47.480;8.768;2022-09-25T15:09:37;17.40;64.30
38265;DHT22;24062;47.480;8.768;2022-09-25T15:12:20;17.30;64.80
38265;DHT22;24062;47.480;8.768;2022-09-25T15:15:03;17.00;64.30
38265;DHT22;24062;47.480;8.768;2022-09-25T15:17:33;16.90;64.70
38265;DHT22;24062;47.480;8.768;2022-09-25T15:20:05;16.70;64.60
38265;DHT22;24062;47.480;8.768;2022-09-25T15:22:36;16.50;64.90
38265;DHT22;24062;47.480;8.768;2022-09-25T15:25:07;16.30;65.30
38265;DHT22;24062;47.480;8.768;2022-09-25T15:27:34;16.20;65.60
38265;DHT22;24062;47.480;8.768;2022-09-25T15:30:13;16.20;66.10
38265;DHT22;24062;47.480;8.768;2022-09-25T15:32:41;16.10;66.60
38265;DHT22;24062;47.480;8.768;2022-09-25T15:35:17;16.10;66.70
38265;DHT22;24062;47.480;8.768;2022-09-25T15:37:45;16.00;66.90
38265;DHT22;24062;47.480;8.768;2022-09-25T15:40:20;16.00;66.90
38265;DHT22;24062;47.480;8.768;2022-09-25T15:42:50;16.00;67.20
38265;DHT22;24062;47.480;8.768;2022-09-25T15:45:37;16.00;67.20
38265;DHT22;24062;47.480;8.768;2022-09-25T15:48:21;16.10;67.70
38265;DHT22;24062;47.480;8.768;2022-09-25T15:50:50;16.10;67.80
38265;DHT22;24062;47.480;8.768;2022-09-25T15:53:24;16.00;67.70
38265;DHT22;24062;47.480;8.768;2022-09-25T15:56:03;16.00;67.80
38265;DHT22;24062;47.480;8.768;2022-09-25T15:58:43;16.00;68.20
38265;DHT22;24062;47.480;8.768;2022-09-25T16:01:12;16.20;68.60
38265;DHT22;24062;47.480;8.768;2022-09-25T16:03:58;16.30;68.50
38265;DHT22;24062;47.480;8.768;2022-09-25T16:06:44;16.30;68.50
38265;DHT22;24062;47.480;8.768;2022-09-25T16:09:26;16.20;68.30
38265;DHT22;24062;47.480;8.768;2022-09-25T16:12:10;16.30;68.60